sensor_id;sensor_type;location;lat;lon;timestamp;pressure;altitude;pressure_sealevel;temperature;humidity
54876;BME280;40764;48.472;8.166;2023-04-06T00:04:15;98468.97;;;0.81;75.00
54876;BME280;40764;48.472;8.166;2023-04-06T00:10:16;98476.00;;;0.82;74.78
54876;BME280;40764;48.472;8.166;2023-04-06T00:16:17;98472.13;;;0.78;75.23
54876;BME280;40764;48.472;8.166;2023-04-06T00:22:17;98470.03;;;0.62;75.03
54876;BME280;40764;48.472;8.166;2023-04-06T00:28:18;98469.97;;;0.69;74.98
54876;BME280;40764;48.472;8.166;2023-04-06T00:34:25;98461.25;;;0.85;74.76
54876;BME280;40764;48.472;8.166;2023-04-06T00:40:25;98458.16;;;0.70;75.40
54876;BME280;40764;48.472;8.166;2023-04-06T00:46:28;98455.41;;;0.58;75.58
54876;BME280;40764;48.472;8.166;2023-04-06T00:52:28;98449.41;;;0.56;75.82
54876;BME280;40764;48.472;8.166;2023-04-06T00:58:29;98452.03;;;0.63;75.31
54876;BME280;40764;48.472;8.166;2023-04-06T01:04:29;98447.34;;;0.58;75.83
54876;BME280;40764;48.472;8.166;2023-04-06T01:10:30;98451.66;;;0.59;75.18
54876;BME280;40764;48.472;8.166;2023-04-06T01:16:31;98440.97;;;0.52;75.60
54876;BME280;40764;48.472;8.166;2023-04-06T01:22:32;98434.97;;;0.50;75.52
54876;BME280;40764;48.472;8.166;2023-04-06T01:28:32;98438.81;;;0.43;76.10
54876;BME280;40764;48.472;8.166;2023-04-06T01:34:32;98425.81;;;0.40;75.60
54876;BME280;40764;48.472;8.166;2023-04-06T01:40:33;98428.72;;;0.38;75.79
54876;BME280;40764;48.472;8.166;2023-04-06T01:46:33;98418.78;;;0.20;76.45
54876;BME280;40764;48.472;8.166;2023-04-06T01:52:34;98423.69;;;0.23;75.98
54876;BME280;40764;48.472;8.166;2023-04-06T01:58:34;98415.34;;;0.32;75.99
54876;BME280;40764;48.472;8.166;2023-04-06T02:04:35;98419.75;;;0.08;77.27
54876;BME280;40764;48.472;8.166;2023-04-06T02:10:35;98424.22;;;0.14;76.43
54876;BME280;40764;48.472;8.166;2023-04-06T02:16:36;98419.97;;;0.06;76.62
54876;BME280;40764;48.472;8.166;2023-04-06T02:22:36;98421.47;;;0.20;76.06
54876;BME280;40764;48.472;8.166;2023-04-06T02:28:36;98409.59;;;0.10;77.06
54876;BME280;40764;48.472;8.166;2023-04-06T02:34:37;98417.13;;;0.01;77.21
54876;BME280;40764;48.472;8.166;2023-04-06T02:40:37;98411.81;;;-0.06;77.44
54876;BME280;40764;48.472;8.166;2023-04-06T02:46:38;98412.59;;;0.02;77.22
54876;BME280;40764;48.472;8.166;2023-04-06T02:52:38;98408.41;;;0.06;76.82
54876;BME280;40764;48.472;8.166;2023-04-06T02:58:38;98409.25;;;-0.01;76.92
54876;BME280;40764;48.472;8.166;2023-04-06T03:04:39;98411.94;;;-0.01;77.30
54876;BME280;40764;48.472;8.166;2023-04-06T03:10:39;98400.47;;;-0.33;77.96
54876;BME280;40764;48.472;8.166;2023-04-06T03:16:40;98405.09;;;-0.40;78.60
54876;BME280;40764;48.472;8.166;2023-04-06T03:22:40;98393.69;;;-0.35;78.87
54876;BME280;40764;48.472;8.166;2023-04-06T03:28:41;98396.03;;;-0.20;77.99
54876;BME280;40764;48.472;8.166;2023-04-06T03:34:41;98408.06;;;-0.05;77.22
54876;BME280;40764;48.472;8.166;2023-04-06T03:40:41;98410.22;;;-0.13;77.38
54876;BME280;40764;48.472;8.166;2023-04-06T03:46:42;98405.03;;;-0.33;77.53
54876;BME280;40764;48.472;8.166;2023-04-06T03:52:43;98409.59;;;-0.34;77.70
54876;BME280;40764;48.472;8.166;2023-04-06T03:58:43;98418.91;;;-0.36;77.80
54876;BME280;40764;48.472;8.166;2023-04-06T04:04:45;98424.34;;;-0.43;77.97
54876;BME280;40764;48.472;8.166;2023-04-06T04:10:45;98426.88;;;-0.48;78.09
54876;BME280;40764;48.472;8.166;2023-04-06T04:16:46;98429.16;;;-0.51;77.96
54876;BME280;40764;48.472;8.166;2023-04-06T04:22:46;98434.97;;;-0.54;78.22
54876;BME280;40764;48.472;8.166;2023-04-06T04:28:46;98439.09;;;-0.52;78.07
54876;BME280;40764;48.472;8.166;2023-04-06T04:34:47;98445.59;;;-0.41;77.18
54876;BME280;40764;48.472;8.166;2023-04-06T04:40:47;98446.78;;;-0.62;78.38
54876;BME280;40764;48.472;8.166;2023-04-06T04:46:47;98440.06;;;-0.71;78.48
54876;BME280;40764;48.472;8.166;2023-04-06T04:52:48;98448.00;;;-0.58;77.89
54876;BME280;40764;48.472;8.166;2023-04-06T04:58:48;98452.97;;;-0.55;78.29
54876;BME280;40764;48.472;8.166;2023-04-06T05:04:48;98454.16;;;-0.51;78.04
54876;BME280;40764;48.472;8.166;2023-04-06T05:10:49;98454.59;;;-0.54;78.04
54876;BME280;40764;48.472;8.166;2023-04-06T05:16:49;98462.41;;;-0.77;79.48
54876;BME280;40764;48.472;8.166;2023-04-06T05:22:50;98463.03;;;-0.50;78.58
54876;BME280;40764;48.472;8.166;2023-04-06T05:28:50;98471.47;;;-0.47;78.30
54876;BME280;40764;48.472;8.166;2023-04-06T05:34:51;98472.25;;;-0.40;78.44
54876;BME280;40764;48.472;8.166;2023-04-06T05:40:51;98476.25;;;-0.49;78.54
54876;BME280;40764;48.472;8.166;2023-04-06T05:46:52;98474.50;;;-0.37;78.80
54876;BME280;40764;48.472;8.166;2023-04-06T05:52:52;98486.56;;;-0.21;78.06
54876;BME280;40764;48.472;8.166;2023-04-06T05:58:52;98475.69;;;-0.08;77.77
54876;BME280;40764;48.472;8.166;2023-04-06T06:04:53;98473.66;;;0.13;77.79
54876;BME280;40764;48.472;8.166;2023-04-06T06:10:53;98475.56;;;0.30;77.29
54876;BME280;40764;48.472;8.166;2023-04-06T06:16:54;98480.03;;;0.55;76.17
54876;BME280;40764;48.472;8.166;2023-04-06T06:22:54;98481.91;;;0.54;76.68
54876;BME280;40764;48.472;8.166;2023-04-06T06:28:56;98475.03;;;0.77;76.16
54876;BME280;40764;48.472;8.166;2023-04-06T06:34:56;98478.75;;;0.94;75.52
54876;BME280;40764;48.472;8.166;2023-04-06T06:40:56;98473.38;;;1.24;74.99
54876;BME280;40764;48.472;8.166;2023-04-06T06:46:57;98477.69;;;1.55;74.02
54876;BME280;40764;48.472;8.166;2023-04-06T06:52:57;98478.81;;;1.77;73.81
54876;BME280;40764;48.472;8.166;2023-04-06T06:58:57;98466.53;;;2.05;73.25
54876;BME280;40764;48.472;8.166;2023-04-06T07:04:58;98470.16;;;2.34;72.86
54876;BME280;40764;48.472;8.166;2023-04-06T07:10:58;98470.13;;;2.57;71.44
54876;BME280;40764;48.472;8.166;2023-04-06T07:16:59;98460.41;;;2.96;69.39
54876;BME280;40764;48.472;8.166;2023-04-06T07:22:59;98460.44;;;3.25;69.04
54876;BME280;40764;48.472;8.166;2023-04-06T07:28:59;98458.69;;;3.47;67.70
54876;BME280;40764;48.472;8.166;2023-04-06T07:35:00;98449.84;;;3.85;65.99
54876;BME280;40764;48.472;8.166;2023-04-06T07:41:00;98441.78;;;4.24;65.96
54876;BME280;40764;48.472;8.166;2023-04-06T07:47:03;98445.91;;;4.65;65.42
54876;BME280;40764;48.472;8.166;2023-04-06T07:53:03;98448.84;;;4.85;63.79
54876;BME280;40764;48.472;8.166;2023-04-06T07:59:03;98442.69;;;5.17;62.07
54876;BME280;40764;48.472;8.166;2023-04-06T08:05:04;98438.09;;;5.71;60.86
54876;BME280;40764;48.472;8.166;2023-04-06T08:11:05;98429.94;;;5.98;59.22
54876;BME280;40764;48.472;8.166;2023-04-06T08:17:06;98435.72;;;6.49;56.71
54876;BME280;40764;48.472;8.166;2023-04-06T08:23:06;98428.00;;;6.83;55.99
54876;BME280;40764;48.472;8.166;2023-04-06T08:29:09;98430.00;;;7.18;54.29
54876;BME280;40764;48.472;8.166;2023-04-06T08:35:09;98412.69;;;7.60;52.23
54876;BME280;40764;48.472;8.166;2023-04-06T08:41:11;98405.34;;;8.06;50.21
54876;BME280;40764;48.472;8.166;2023-04-06T08:47:12;98419.75;;;8.47;47.50
54876;BME280;40764;48.472;8.166;2023-04-06T08:53:13;98413.94;;;8.79;46.04
54876;BME280;40764;48.472;8.166;2023-04-06T08:59:14;98399.88;;;9.11;43.55
54876;BME280;40764;48.472;8.166;2023-04-06T09:05:15;98405.09;;;9.47;41.50
54876;BME280;40764;48.472;8.166;2023-04-06T09:11:16;98397.84;;;9.71;41.76
54876;BME280;40764;48.472;8.166;2023-04-06T09:17:21;98389.06;;;10.08;39.55
54876;BME280;40764;48.472;8.166;2023-04-06T09:23:21;98396.28;;;10.28;39.77
54876;BME280;40764;48.472;8.166;2023-04-06T09:29:25;98391.47;;;10.68;40.26
54876;BME280;40764;48.472;8.166;2023-04-06T09:35:26;98395.00;;;10.73;39.62
54876;BME280;40764;48.472;8.166;2023-04-06T09:41:36;98397.94;;;10.77;37.70
54876;BME280;40764;48.472;8.166;2023-04-06T09:47:37;98397.38;;;10.80;37.57
54876;BME280;40764;48.472;8.166;2023-04-06T09:53:38;98394.97;;;11.16;37.61
54876;BME280;40764;48.472;8.166;2023-04-06T10:06:04;98398.69;;;11.25;38.35
54876;BME280;40764;48.472;8.166;2023-04-06T10:12:05;98406.22;;;11.52;38.72
54876;BME280;40764;48.472;8.166;2023-04-06T10:18:06;98392.50;;;11.57;37.83
54876;BME280;40764;48.472;8.166;2023-04-06T10:24:09;98382.91;;;11.73;34.80
54876;BME280;40764;48.472;8.166;2023-04-06T10:30:15;98383.91;;;12.15;35.67
54876;BME280;40764;48.472;8.166;2023-04-06T10:36:32;98378.75;;;12.41;33.42
54876;BME280;40764;48.472;8.166;2023-04-06T10:42:38;98388.91;;;12.40;32.69
54876;BME280;40764;48.472;8.166;2023-04-06T10:48:44;98379.69;;;12.64;32.15
54876;BME280;40764;48.472;8.166;2023-04-06T10:54:45;98375.84;;;12.51;30.92
54876;BME280;40764;48.472;8.166;2023-04-06T11:00:49;98378.78;;;12.82;31.78
54876;BME280;40764;48.472;8.166;2023-04-06T11:06:50;98373.69;;;12.89;30.69
54876;BME280;40764;48.472;8.166;2023-04-06T11:12:54;98366.38;;;12.85;29.61
54876;BME280;40764;48.472;8.166;2023-04-06T11:25:06;98358.88;;;12.77;27.16
54876;BME280;40764;48.472;8.166;2023-04-06T11:31:07;98357.44;;;13.07;28.21
54876;BME280;40764;48.472;8.166;2023-04-06T11:37:09;98354.16;;;13.32;29.77
54876;BME280;40764;48.472;8.166;2023-04-06T11:43:12;98340.72;;;13.17;29.78
54876;BME280;40764;48.472;8.166;2023-04-06T11:49:15;98341.31;;;13.41;29.81
54876;BME280;40764;48.472;8.166;2023-04-06T11:55:18;98343.91;;;13.10;29.41
54876;BME280;40764;48.472;8.166;2023-04-06T12:01:18;98335.22;;;13.17;29.28
54876;BME280;40764;48.472;8.166;2023-04-06T12:07:19;98331.19;;;13.50;28.74
54876;BME280;40764;48.472;8.166;2023-04-06T12:13:19;98330.38;;;13.72;29.03
54876;BME280;40764;48.472;8.166;2023-04-06T12:19:20;98335.69;;;13.91;27.49
54876;BME280;40764;48.472;8.166;2023-04-06T12:25:21;98328.84;;;14.11;27.46
54876;BME280;40764;48.472;8.166;2023-04-06T12:31:22;98327.69;;;14.03;25.79
54876;BME280;40764;48.472;8.166;2023-04-06T12:37:23;98325.38;;;13.97;26.10
54876;BME280;40764;48.472;8.166;2023-04-06T12:43:24;98317.19;;;14.05;26.00
54876;BME280;40764;48.472;8.166;2023-04-06T12:49:25;98315.78;;;14.16;26.19
54876;BME280;40764;48.472;8.166;2023-04-06T12:55:29;98312.31;;;14.02;27.10
54876;BME280;40764;48.472;8.166;2023-04-06T13:01:29;98316.47;;;14.53;26.85
54876;BME280;40764;48.472;8.166;2023-04-06T13:07:30;98317.13;;;14.27;25.90
54876;BME280;40764;48.472;8.166;2023-04-06T13:13:30;98313.47;;;14.41;24.74
54876;BME280;40764;48.472;8.166;2023-04-06T13:19:31;98314.13;;;14.77;26.53
54876;BME280;40764;48.472;8.166;2023-04-06T13:25:31;98306.72;;;15.12;25.12
54876;BME280;40764;48.472;8.166;2023-04-06T13:31:32;98310.66;;;14.54;26.04
54876;BME280;40764;48.472;8.166;2023-04-06T13:37:34;98309.13;;;14.97;26.22
54876;BME280;40764;48.472;8.166;2023-04-06T13:43:34;98300.09;;;15.05;26.21
54876;BME280;40764;48.472;8.166;2023-04-06T13:49:35;98291.94;;;14.82;26.30
54876;BME280;40764;48.472;8.166;2023-04-06T13:55:35;98304.47;;;14.49;26.35
54876;BME280;40764;48.472;8.166;2023-04-06T14:01:37;98293.09;;;14.11;27.61
54876;BME280;40764;48.472;8.166;2023-04-06T14:07:37;98296.25;;;14.57;28.41
54876;BME280;40764;48.472;8.166;2023-04-06T14:13:38;98295.94;;;14.68;27.79
54876;BME280;40764;48.472;8.166;2023-04-06T14:19:38;98296.16;;;14.40;28.69
54876;BME280;40764;48.472;8.166;2023-04-06T14:25:38;98289.97;;;14.74;28.69
54876;BME280;40764;48.472;8.166;2023-04-06T14:31:39;98291.25;;;14.60;28.95
54876;BME280;40764;48.472;8.166;2023-04-06T14:37:39;98296.13;;;14.32;29.67
54876;BME280;40764;48.472;8.166;2023-04-06T14:43:40;98290.94;;;14.30;30.12
54876;BME280;40764;48.472;8.166;2023-04-06T14:49:40;98300.66;;;13.74;30.91
54876;BME280;40764;48.472;8.166;2023-04-06T14:55:40;98285.84;;;13.84;31.36
54876;BME280;40764;48.472;8.166;2023-04-06T15:01:41;98288.38;;;13.72;31.78
54876;BME280;40764;48.472;8.166;2023-04-06T15:07:41;98288.38;;;13.49;32.15
54876;BME280;40764;48.472;8.166;2023-04-06T15:13:42;98284.44;;;13.19;32.81
54876;BME280;40764;48.472;8.166;2023-04-06T15:19:42;98291.25;;;13.44;32.74
54876;BME280;40764;48.472;8.166;2023-04-06T15:25:42;98298.13;;;13.33;33.43
54876;BME280;40764;48.472;8.166;2023-04-06T15:31:43;98285.63;;;13.13;32.92
54876;BME280;40764;48.472;8.166;2023-04-06T15:37:43;98283.22;;;13.12;33.68
54876;BME280;40764;48.472;8.166;2023-04-06T15:43:43;98276.47;;;13.31;34.09
54876;BME280;40764;48.472;8.166;2023-04-06T15:49:44;98276.78;;;12.80;34.26
54876;BME280;40764;48.472;8.166;2023-04-06T15:55:44;98289.69;;;12.66;34.92
54876;BME280;40764;48.472;8.166;2023-04-06T16:01:45;98297.13;;;12.38;35.32
54876;BME280;40764;48.472;8.166;2023-04-06T16:07:45;98291.94;;;12.36;35.65
54876;BME280;40764;48.472;8.166;2023-04-06T16:13:46;98288.91;;;12.24;36.69
54876;BME280;40764;48.472;8.166;2023-04-06T16:19:46;98297.84;;;12.16;36.48
54876;BME280;40764;48.472;8.166;2023-04-06T16:25:47;98293.75;;;12.00;37.06
54876;BME280;40764;48.472;8.166;2023-04-06T16:31:47;98300.84;;;11.87;37.57
54876;BME280;40764;48.472;8.166;2023-04-06T16:37:48;98305.78;;;11.85;38.07
54876;BME280;40764;48.472;8.166;2023-04-06T16:43:49;98313.81;;;11.63;39.16
54876;BME280;40764;48.472;8.166;2023-04-06T16:49:50;98316.66;;;11.58;40.19
54876;BME280;40764;48.472;8.166;2023-04-06T16:55:50;98312.84;;;11.54;41.63
54876;BME280;40764;48.472;8.166;2023-04-06T17:01:51;98317.78;;;11.70;40.47
54876;BME280;40764;48.472;8.166;2023-04-06T17:07:51;98318.56;;;11.57;42.70
54876;BME280;40764;48.472;8.166;2023-04-06T17:13:52;98320.50;;;11.38;42.64
54876;BME280;40764;48.472;8.166;2023-04-06T17:19:52;98328.59;;;11.29;43.46
54876;BME280;40764;48.472;8.166;2023-04-06T17:25:53;98320.69;;;11.28;43.59
54876;BME280;40764;48.472;8.166;2023-04-06T17:31:54;98322.28;;;11.10;44.36
54876;BME280;40764;48.472;8.166;2023-04-06T17:37:54;98328.97;;;11.04;44.41
54876;BME280;40764;48.472;8.166;2023-04-06T17:43:54;98324.22;;;11.09;44.69
54876;BME280;40764;48.472;8.166;2023-04-06T17:49:55;98317.69;;;10.86;45.42
54876;BME280;40764;48.472;8.166;2023-04-06T17:55:55;98326.44;;;10.65;48.28
54876;BME280;40764;48.472;8.166;2023-04-06T18:01:56;98339.53;;;10.68;47.46
54876;BME280;40764;48.472;8.166;2023-04-06T18:07:56;98348.16;;;10.56;49.82
54876;BME280;40764;48.472;8.166;2023-04-06T18:13:57;98354.50;;;10.51;49.32
54876;BME280;40764;48.472;8.166;2023-04-06T18:19:57;98352.81;;;10.32;51.38
54876;BME280;40764;48.472;8.166;2023-04-06T18:26:01;98347.41;;;10.27;50.90
54876;BME280;40764;48.472;8.166;2023-04-06T18:32:02;98355.91;;;10.20;52.96
54876;BME280;40764;48.472;8.166;2023-04-06T18:38:02;98360.63;;;9.85;55.60
54876;BME280;40764;48.472;8.166;2023-04-06T18:44:02;98359.88;;;9.75;57.39
54876;BME280;40764;48.472;8.166;2023-04-06T18:50:03;98363.56;;;9.60;57.70
54876;BME280;40764;48.472;8.166;2023-04-06T18:56:12;98365.75;;;9.53;61.08
54876;BME280;40764;48.472;8.166;2023-04-06T19:02:12;98360.84;;;9.16;63.51
54876;BME280;40764;48.472;8.166;2023-04-06T19:08:13;98366.63;;;9.09;64.77
54876;BME280;40764;48.472;8.166;2023-04-06T19:14:14;98362.03;;;8.99;65.73
54876;BME280;40764;48.472;8.166;2023-04-06T19:20:14;98367.41;;;9.15;63.76
54876;BME280;40764;48.472;8.166;2023-04-06T19:26:16;98366.66;;;9.04;65.40
54876;BME280;40764;48.472;8.166;2023-04-06T19:32:16;98367.00;;;8.87;65.83
54876;BME280;40764;48.472;8.166;2023-04-06T19:38:17;98369.66;;;9.03;65.79
54876;BME280;40764;48.472;8.166;2023-04-06T19:44:18;98368.22;;;9.15;65.88
54876;BME280;40764;48.472;8.166;2023-04-06T19:50:18;98369.69;;;8.97;66.45
54876;BME280;40764;48.472;8.166;2023-04-06T19:56:18;98370.53;;;8.88;67.27
54876;BME280;40764;48.472;8.166;2023-04-06T20:02:19;98377.34;;;8.90;67.35
54876;BME280;40764;48.472;8.166;2023-04-06T20:08:21;98363.19;;;8.83;68.30
54876;BME280;40764;48.472;8.166;2023-04-06T20:14:21;98362.63;;;8.86;69.47
54876;BME280;40764;48.472;8.166;2023-04-06T20:20:21;98354.56;;;8.61;70.68
54876;BME280;40764;48.472;8.166;2023-04-06T20:26:22;98348.56;;;8.64;70.81
54876;BME280;40764;48.472;8.166;2023-04-06T20:32:22;98342.09;;;8.50;72.13
54876;BME280;40764;48.472;8.166;2023-04-06T20:38:23;98337.75;;;8.49;73.37
54876;BME280;40764;48.472;8.166;2023-04-06T20:44:23;98345.97;;;8.23;74.35
54876;BME280;40764;48.472;8.166;2023-04-06T20:50:25;98341.63;;;8.17;74.56
54876;BME280;40764;48.472;8.166;2023-04-06T20:56:25;98346.78;;;8.08;75.40
54876;BME280;40764;48.472;8.166;2023-04-06T21:02:26;98333.75;;;8.11;74.99
54876;BME280;40764;48.472;8.166;2023-04-06T21:08:26;98344.31;;;8.22;73.81
54876;BME280;40764;48.472;8.166;2023-04-06T21:14:26;98327.97;;;8.43;72.76
54876;BME280;40764;48.472;8.166;2023-04-06T21:20:27;98327.94;;;8.32;73.58
54876;BME280;40764;48.472;8.166;2023-04-06T21:26:27;98324.16;;;8.23;73.52
54876;BME280;40764;48.472;8.166;2023-04-06T21:32:28;98321.47;;;8.08;74.49
54876;BME280;40764;48.472;8.166;2023-04-06T21:38:28;98317.66;;;8.19;75.36
54876;BME280;40764;48.472;8.166;2023-04-06T21:44:28;98306.16;;;8.32;73.88
54876;BME280;40764;48.472;8.166;2023-04-06T21:50:29;98317.41;;;8.11;74.76
54876;BME280;40764;48.472;8.166;2023-04-06T21:56:29;98304.00;;;8.29;75.33
54876;BME280;40764;48.472;8.166;2023-04-06T22:02:29;98305.09;;;8.28;74.58
54876;BME280;40764;48.472;8.166;2023-04-06T22:08:31;98300.91;;;8.56;73.28
54876;BME280;40764;48.472;8.166;2023-04-06T22:14:31;98302.91;;;8.41;73.59
54876;BME280;40764;48.472;8.166;2023-04-06T22:20:32;98286.31;;;8.27;74.58
54876;BME280;40764;48.472;8.166;2023-04-06T22:26:32;98278.66;;;8.29;73.76
54876;BME280;40764;48.472;8.166;2023-04-06T22:32:33;98295.06;;;8.14;75.92
54876;BME280;40764;48.472;8.166;2023-04-06T22:38:33;98287.38;;;8.26;75.28
54876;BME280;40764;48.472;8.166;2023-04-06T22:44:33;98281.94;;;8.36;73.91
54876;BME280;40764;48.472;8.166;2023-04-06T22:50:34;98277.84;;;8.33;73.72
54876;BME280;40764;48.472;8.166;2023-04-06T22:56:34;98273.25;;;8.24;75.76
54876;BME280;40764;48.472;8.166;2023-04-06T23:02:35;98275.09;;;8.44;74.83
54876;BME280;40764;48.472;8.166;2023-04-06T23:08:35;98267.56;;;8.05;76.19
54876;BME280;40764;48.472;8.166;2023-04-06T23:14:36;98264.09;;;7.79;77.52
54876;BME280;40764;48.472;8.166;2023-04-06T23:20:36;98255.03;;;8.09;76.56
54876;BME280;40764;48.472;8.166;2023-04-06T23:26:37;98260.41;;;8.34;76.25
54876;BME280;40764;48.472;8.166;2023-04-06T23:32:37;98233.03;;;7.95;78.50
54876;BME280;40764;48.472;8.166;2023-04-06T23:38:37;98236.09;;;7.84;79.08
54876;BME280;40764;48.472;8.166;2023-04-06T23:44:38;98232.28;;;7.85;79.97
54876;BME280;40764;48.472;8.166;2023-04-06T23:50:38;98228.19;;;7.87;80.02
54876;BME280;40764;48.472;8.166;2023-04-06T23:56:38;98225.13;;;8.04;79.38
